Terminal Aerodrome Forecast
Issued by NWS Wilmington, NC

Home | Current Version | Previous Version | Text Only | Print | Product List | Glossary On
Versions: 1 2 3 4 5 6 7 8 9 10 11 12 13 14 15 16 17 18 19 20 21 22
000
FTUS42 KILM 220600 CCA
TAFLBT
TAF COR
KLBT 220600Z 2206/2306 22008KT P6SM SCT015 BKN025
     FM220800 22007KT 4SM -RA BR SCT007 OVC015
      TEMPO 2209/2213 1SM RA OVC007
     FM221700 19009KT 5SM BR VCSH SCT015 OVC025
     FM222100 16008KT 4SM -SHRA BR SCT015 OVC025
     FM222300 14014G20KT 5SM -TSRA BR BKN020CB OVC030
      TEMPO 2300/2304 VRB30G45KT 1SM +TSRA BR BKN007 OVC015CB
     FM230500 22013G19KT 6SM -SHRA SCT015 BKN025=

USA.gov is the U.S. government's official web portal to all federal, state and local government web resources and services.